Time;durP1;ratioP1;P1;durP2;ratioP2;P2;SDS_P1;SDS_P2;PMS_P1;PMS_P2;Temp;Humidity;BMP_temperature;BMP_pressure;BME280_temperature;BME280_humidity;BME280_pressure;Samples;Min_cycle;Max_cycle;Signal;HPM_P1;HPM_P2
2024/02/26 00:02:17;;;;;;;;;;;22.30;37.10;;;;;;5074144;28;20011;-64
2024/02/26 00:04:44;;;;;;;;;;;22.30;37.10;;;;;;5074261;28;19978;-64
2024/02/26 00:07:10;;;;;;;;;;;22.30;37.10;;;;;;5073520;28;19924;-64
2024/02/26 00:09:38;;;;;;;;;;;22.30;37.10;;;;;;5074431;28;20336;-65
2024/02/26 00:12:05;;;;;;;;;;;22.30;37.20;;;;;;5073029;28;19924;-64
2024/02/26 00:14:32;;;;;;;;;;;22.30;37.20;;;;;;5073987;28;19978;-64
2024/02/26 00:16:59;;;;;;;;;;;22.30;37.30;;;;;;5074240;28;19978;-64
2024/02/26 00:19:26;;;;;;;;;;;22.20;37.30;;;;;;5073805;28;19924;-64
2024/02/26 00:21:55;;;;;;;;;;;22.20;37.30;;;;;;5073908;28;19928;-64
2024/02/26 00:24:22;;;;;;;;;;;22.20;37.30;;;;;;5073645;28;19976;-64
2024/02/26 00:26:52;;;;;;;;;;;22.20;37.30;;;;;;5073728;28;19970;-64
2024/02/26 00:29:20;;;;;;;;;;;22.30;37.30;;;;;;5073754;28;19924;-64
2024/02/26 00:31:47;;;;;;;;;;;22.30;37.30;;;;;;5073990;28;19924;-65
2024/02/26 00:34:14;;;;;;;;;;;22.20;37.20;;;;;;5072294;28;20378;-64
2024/02/26 00:36:41;;;;;;;;;;;22.30;37.20;;;;;;5073689;28;19924;-64
2024/02/26 00:39:08;;;;;;;;;;;22.30;37.20;;;;;;5073489;28;20314;-64
2024/02/26 00:41:38;;;;;;;;;;;22.30;37.20;;;;;;5073712;28;19947;-64
2024/02/26 00:44:05;;;;;;;;;;;22.30;37.30;;;;;;5073481;28;19930;-64
2024/02/26 00:46:32;;;;;;;;;;;22.30;37.20;;;;;;5073316;28;19969;-64
2024/02/26 00:49:00;;;;;;;;;;;22.30;37.20;;;;;;5073728;28;19932;-64
2024/02/26 00:51:27;;;;;;;;;;;22.30;37.20;;;;;;5073413;28;19928;-64
2024/02/26 00:53:55;;;;;;;;;;;22.20;37.20;;;;;;5073524;28;19924;-64
2024/02/26 00:56:22;;;;;;;;;;;22.30;37.20;;;;;;5073093;28;19928;-64
2024/02/26 00:58:48;;;;;;;;;;;22.30;37.20;;;;;;5073856;28;19924;-65
2024/02/26 01:01:15;;;;;;;;;;;22.30;37.30;;;;;;5073017;28;19924;-64
2024/02/26 01:03:42;;;;;;;;;;;22.30;37.30;;;;;;5073654;28;19924;-64
2024/02/26 01:06:09;;;;;;;;;;;22.30;37.30;;;;;;5072262;28;19959;-64
2024/02/26 01:08:37;;;;;;;;;;;22.20;37.20;;;;;;5073460;28;19982;-64
2024/02/26 01:11:04;;;;;;;;;;;22.20;37.20;;;;;;5071976;28;19975;-64
2024/02/26 01:13:31;;;;;;;;;;;22.20;37.20;;;;;;5073168;28;20362;-64
2024/02/26 01:15:58;;;;;;;;;;;22.30;37.30;;;;;;5073267;28;20401;-64
2024/02/26 01:18:25;;;;;;;;;;;22.30;37.30;;;;;;5072762;28;19928;-64
2024/02/26 01:20:54;;;;;;;;;;;22.20;37.30;;;;;;5073446;28;19987;-64
2024/02/26 01:23:21;;;;;;;;;;;22.20;37.30;;;;;;5073458;28;19924;-64
2024/02/26 01:25:48;;;;;;;;;;;22.10;37.30;;;;;;5073335;28;20047;-64
2024/02/26 01:28:15;;;;;;;;;;;22.20;37.40;;;;;;5073236;28;20023;-65
2024/02/26 01:30:42;;;;;;;;;;;22.20;37.50;;;;;;5073371;28;19946;-64
2024/02/26 01:33:09;;;;;;;;;;;22.10;37.40;;;;;;5072748;28;19925;-64
2024/02/26 01:35:36;;;;;;;;;;;22.20;37.50;;;;;;5073461;28;20019;-64
2024/02/26 01:38:03;;;;;;;;;;;22.20;37.50;;;;;;5073246;28;19931;-65
2024/02/26 01:40:30;;;;;;;;;;;22.20;37.40;;;;;;5072850;28;19966;-64
2024/02/26 01:42:58;;;;;;;;;;;22.20;37.40;;;;;;5073159;28;19997;-64
2024/02/26 01:45:25;;;;;;;;;;;22.20;37.40;;;;;;5073277;28;19924;-64
2024/02/26 01:47:52;;;;;;;;;;;22.20;37.40;;;;;;5072665;28;19931;-64
2024/02/26 01:50:21;;;;;;;;;;;22.20;37.40;;;;;;5072980;28;19951;-64
2024/02/26 01:52:50;;;;;;;;;;;22.20;37.40;;;;;;5072770;28;19970;-64
2024/02/26 01:55:17;;;;;;;;;;;22.20;37.40;;;;;;5073171;28;20366;-64
2024/02/26 01:57:45;;;;;;;;;;;22.20;37.40;;;;;;5073150;28;19924;-64
2024/02/26 02:00:14;;;;;;;;;;;22.20;37.40;;;;;;5072798;28;20024;-64
2024/02/26 02:02:41;;;;;;;;;;;22.20;37.40;;;;;;5072705;28;19924;-64
2024/02/26 02:05:09;;;;;;;;;;;22.20;37.40;;;;;;5073097;28;19960;-64
2024/02/26 02:07:36;;;;;;;;;;;22.20;37.40;;;;;;5073004;28;19924;-64
2024/02/26 02:10:03;;;;;;;;;;;22.20;37.40;;;;;;5072405;28;19924;-65
2024/02/26 02:12:32;;;;;;;;;;;22.20;37.40;;;;;;5072545;28;19924;-64
2024/02/26 02:15:00;;;;;;;;;;;22.20;37.50;;;;;;5072890;28;19925;-65
2024/02/26 02:17:28;;;;;;;;;;;22.20;37.40;;;;;;5072920;28;19970;-64
2024/02/26 02:19:54;;;;;;;;;;;22.20;37.40;;;;;;5072667;28;19924;-64
2024/02/26 02:22:22;;;;;;;;;;;22.20;37.40;;;;;;5072483;28;20006;-64
2024/02/26 02:24:49;;;;;;;;;;;22.20;37.40;;;;;;5072501;28;20416;-64
2024/02/26 02:27:16;;;;;;;;;;;22.10;37.40;;;;;;5072562;28;20366;-64
2024/02/26 02:29:46;;;;;;;;;;;22.20;37.50;;;;;;5073586;28;19964;-64
2024/02/26 02:32:14;;;;;;;;;;;22.20;37.50;;;;;;5075803;28;19925;-64
2024/02/26 02:34:41;;;;;;;;;;;22.10;37.50;;;;;;5076217;28;19924;-64
2024/02/26 02:37:08;;;;;;;;;;;22.10;37.60;;;;;;5075818;28;19968;-64
2024/02/26 02:39:35;;;;;;;;;;;22.10;37.60;;;;;;5076262;28;19924;-64
2024/02/26 02:42:02;;;;;;;;;;;22.10;37.70;;;;;;5075936;28;19924;-64
2024/02/26 02:44:28;;;;;;;;;;;22.10;37.60;;;;;;5075561;28;19932;-64
2024/02/26 02:46:55;;;;;;;;;;;22.10;37.60;;;;;;5075709;28;20362;-64
2024/02/26 02:49:23;;;;;;;;;;;22.10;37.60;;;;;;5076039;28;19975;-64
2024/02/26 02:51:50;;;;;;;;;;;22.10;37.60;;;;;;5075631;28;19970;-64
2024/02/26 02:54:17;;;;;;;;;;;22.10;37.60;;;;;;5075469;28;19925;-64
2024/02/26 02:56:44;;;;;;;;;;;22.10;37.60;;;;;;5075871;28;19924;-64
2024/02/26 02:59:11;;;;;;;;;;;22.10;37.50;;;;;;5075656;28;19978;-64
2024/02/26 03:01:38;;;;;;;;;;;22.10;37.60;;;;;;5075501;28;19928;-64
2024/02/26 03:04:05;;;;;;;;;;;22.10;37.50;;;;;;5075461;28;19938;-64
2024/02/26 03:06:32;;;;;;;;;;;22.10;37.50;;;;;;5074416;28;19925;-64
2024/02/26 03:09:00;;;;;;;;;;;22.10;37.60;;;;;;5075326;28;19932;-64
2024/02/26 03:11:27;;;;;;;;;;;22.10;37.50;;;;;;5075121;28;20019;-64
2024/02/26 03:13:55;;;;;;;;;;;22.10;37.50;;;;;;5075269;28;20370;-64
2024/02/26 03:16:21;;;;;;;;;;;22.10;37.60;;;;;;5074996;28;20049;-64
2024/02/26 03:18:48;;;;;;;;;;;22.10;37.60;;;;;;5075278;28;19936;-64
2024/02/26 03:21:18;;;;;;;;;;;22.10;37.60;;;;;;5074359;28;21286;-64
2024/02/26 03:23:45;;;;;;;;;;;22.10;37.60;;;;;;5075525;28;19970;-64
2024/02/26 03:26:14;;;;;;;;;;;22.10;37.60;;;;;;5075121;28;19924;-64
2024/02/26 03:28:41;;;;;;;;;;;22.10;37.60;;;;;;5075358;28;19924;-64
2024/02/26 03:31:08;;;;;;;;;;;22.10;37.60;;;;;;5074948;28;20394;-64
2024/02/26 03:33:35;;;;;;;;;;;22.10;37.60;;;;;;5074792;28;20386;-64
2024/02/26 03:36:03;;;;;;;;;;;22.10;37.60;;;;;;5075052;28;19931;-64
2024/02/26 03:38:30;;;;;;;;;;;22.10;37.70;;;;;;5074968;28;19924;-64
2024/02/26 03:40:57;;;;;;;;;;;22.00;37.70;;;;;;5074839;28;19994;-64
2024/02/26 03:43:24;;;;;;;;;;;22.00;37.80;;;;;;5075035;28;20318;-64
2024/02/26 03:45:50;;;;;;;;;;;22.00;37.80;;;;;;5075036;28;20356;-64
2024/02/26 03:48:17;;;;;;;;;;;22.00;37.90;;;;;;5074442;28;19931;-64
2024/02/26 03:50:44;;;;;;;;;;;22.00;37.90;;;;;;5074840;28;19924;-64
2024/02/26 03:53:12;;;;;;;;;;;22.00;37.90;;;;;;5074401;28;19924;-64
2024/02/26 03:55:41;;;;;;;;;;;22.00;37.80;;;;;;5074687;28;19928;-64
2024/02/26 03:58:09;;;;;;;;;;;22.00;37.80;;;;;;5074355;28;19925;-64
2024/02/26 04:00:36;;;;;;;;;;;22.10;37.80;;;;;;5074162;28;20421;-64
2024/02/26 04:03:04;;;;;;;;;;;22.10;37.80;;;;;;5074107;28;20313;-64
2024/02/26 04:05:31;;;;;;;;;;;22.10;37.80;;;;;;5074413;28;19970;-64
2024/02/26 04:07:58;;;;;;;;;;;22.10;37.80;;;;;;5074327;28;20289;-64
2024/02/26 04:10:25;;;;;;;;;;;22.10;37.80;;;;;;5073857;28;19925;-65
2024/02/26 04:12:51;;;;;;;;;;;22.10;37.70;;;;;;5074052;28;20011;-64
2024/02/26 04:15:18;;;;;;;;;;;22.10;37.80;;;;;;5074108;28;19925;-65
2024/02/26 04:17:45;;;;;;;;;;;22.10;37.80;;;;;;5074159;28;20259;-64
2024/02/26 04:20:13;;;;;;;;;;;22.10;37.80;;;;;;5073867;28;19933;-64
2024/02/26 04:22:41;;;;;;;;;;;22.10;37.80;;;;;;5074078;28;20019;-64
2024/02/26 04:25:08;;;;;;;;;;;22.10;37.80;;;;;;5074004;28;19924;-64
2024/02/26 04:27:35;;;;;;;;;;;22.00;37.80;;;;;;5073805;28;20445;-64
2024/02/26 04:30:03;;;;;;;;;;;22.10;37.80;;;;;;5073889;28;19924;-64
2024/02/26 04:32:30;;;;;;;;;;;22.10;37.80;;;;;;5055806;28;20353;-65
2024/02/26 04:34:57;;;;;;;;;;;22.10;37.80;;;;;;5067923;28;19932;-64
2024/02/26 04:37:24;;;;;;;;;;;22.00;37.80;;;;;;5075377;28;19939;-65
2024/02/26 04:39:51;;;;;;;;;;;22.00;37.80;;;;;;5073089;28;19928;-65
2024/02/26 04:42:18;;;;;;;;;;;22.10;37.80;;;;;;5073190;28;20374;-64
2024/02/26 04:44:45;;;;;;;;;;;22.00;37.70;;;;;;5066469;28;19925;-64
2024/02/26 04:47:13;;;;;;;;;;;22.10;37.70;;;;;;5060046;28;19928;-64
2024/02/26 04:49:40;;;;;;;;;;;22.00;37.70;;;;;;5070523;28;19974;-64
2024/02/26 04:52:07;;;;;;;;;;;22.10;37.70;;;;;;5072696;28;19925;-64
2024/02/26 04:54:33;;;;;;;;;;;22.10;37.70;;;;;;5073072;28;19932;-65
2024/02/26 04:57:00;;;;;;;;;;;22.10;37.70;;;;;;5072492;28;19995;-65
2024/02/26 04:59:27;;;;;;;;;;;22.00;37.70;;;;;;5073174;28;19924;-65
2024/02/26 05:01:54;;;;;;;;;;;22.00;37.80;;;;;;5073024;28;19924;-64
2024/02/26 05:04:21;;;;;;;;;;;22.00;37.80;;;;;;5072909;28;19932;-64
2024/02/26 05:06:48;;;;;;;;;;;22.00;37.70;;;;;;5073163;28;19924;-64
2024/02/26 05:09:16;;;;;;;;;;;22.00;37.70;;;;;;5071802;28;19928;-65
2024/02/26 05:11:43;;;;;;;;;;;22.00;37.60;;;;;;5072917;28;20450;-65
2024/02/26 05:14:10;;;;;;;;;;;22.00;37.60;;;;;;5070614;28;19932;-64
2024/02/26 05:16:37;;;;;;;;;;;22.00;37.60;;;;;;5066134;28;19928;-65
2024/02/26 05:19:05;;;;;;;;;;;22.00;37.60;;;;;;5068536;28;19925;-65
2024/02/26 05:21:33;;;;;;;;;;;22.00;37.60;;;;;;5071914;28;19934;-65
2024/02/26 05:24:00;;;;;;;;;;;22.10;37.70;;;;;;5072594;28;19978;-64
2024/02/26 05:26:27;;;;;;;;;;;22.10;37.70;;;;;;5072214;28;19952;-64
2024/02/26 05:28:59;;;;;;;;;;;22.10;37.70;;;;;;5072661;28;20019;-65
2024/02/26 05:31:27;;;;;;;;;;;22.10;37.60;;;;;;5072750;28;20374;-64
2024/02/26 05:33:54;;;;;;;;;;;22.10;37.70;;;;;;5071266;28;20014;-64
2024/02/26 05:36:22;;;;;;;;;;;22.00;37.60;;;;;;5072539;28;19935;-64
2024/02/26 05:38:49;;;;;;;;;;;22.00;37.60;;;;;;5072947;28;20361;-64
2024/02/26 05:41:16;;;;;;;;;;;22.10;37.70;;;;;;5072479;28;19928;-64
2024/02/26 05:43:43;;;;;;;;;;;22.10;37.70;;;;;;5072616;28;19924;-64
2024/02/26 05:46:10;;;;;;;;;;;22.00;37.60;;;;;;5072377;28;20024;-64
2024/02/26 05:48:37;;;;;;;;;;;22.10;37.70;;;;;;5072142;28;20023;-65
2024/02/26 05:51:04;;;;;;;;;;;22.00;37.60;;;;;;5072257;28;19950;-64
2024/02/26 05:53:31;;;;;;;;;;;22.10;37.70;;;;;;5072545;28;19980;-64
2024/02/26 05:55:58;;;;;;;;;;;22.00;37.60;;;;;;5072564;28;19979;-64
2024/02/26 05:58:25;;;;;;;;;;;22.00;37.60;;;;;;5072200;28;19969;-63
2024/02/26 06:00:52;;;;;;;;;;;22.10;37.70;;;;;;5092845;28;19927;-63
2024/02/26 06:03:19;;;;;;;;;;;22.10;37.70;;;;;;5075537;28;19934;-63
2024/02/26 06:05:46;;;;;;;;;;;22.00;37.70;;;;;;5062903;28;19931;-63
2024/02/26 06:08:13;;;;;;;;;;;22.00;37.70;;;;;;5061622;28;19925;-63
2024/02/26 06:10:40;;;;;;;;;;;22.10;37.80;;;;;;5072558;28;19929;-64
2024/02/26 06:13:07;;;;;;;;;;;22.10;37.80;;;;;;5073749;28;19974;-64
2024/02/26 06:15:34;;;;;;;;;;;22.10;37.80;;;;;;5073726;28;20007;-63
2024/02/26 06:18:01;;;;;;;;;;;22.10;37.80;;;;;;5071825;28;19924;-64
2024/02/26 06:20:28;;;;;;;;;;;22.10;37.70;;;;;;5074079;28;19931;-63
2024/02/26 06:22:55;;;;;;;;;;;22.10;37.70;;;;;;5071523;28;19931;-64
2024/02/26 06:25:22;;;;;;;;;;;22.10;37.70;;;;;;5068535;28;19924;-62
2024/02/26 06:27:49;;;;;;;;;;;22.20;37.80;;;;;;5068691;28;20461;-64
2024/02/26 06:30:16;;;;;;;;;;;22.20;37.80;;;;;;5068851;28;19976;-66
2024/02/26 06:32:43;;;;;;;;;;;22.20;38.10;;;;;;5067306;28;20392;-67
2024/02/26 06:35:11;;;;;;;;;;;22.30;38.40;;;;;;5070182;28;19932;-66
2024/02/26 06:37:38;;;;;;;;;;;22.30;38.70;;;;;;5066689;28;19940;-65
2024/02/26 06:40:09;;;;;;;;;;;22.30;38.90;;;;;;5069165;28;20009;-66
2024/02/26 06:42:36;;;;;;;;;;;22.40;38.80;;;;;;5064802;28;19932;-66
2024/02/26 06:45:04;;;;;;;;;;;22.50;38.90;;;;;;5064849;28;19924;-67
2024/02/26 06:47:31;;;;;;;;;;;22.50;39.40;;;;;;5068611;28;20046;-66
2024/02/26 06:49:58;;;;;;;;;;;22.60;38.80;;;;;;5067677;28;19931;-68
2024/02/26 06:52:25;;;;;;;;;;;22.70;38.30;;;;;;5069199;28;19967;-67
2024/02/26 06:54:52;;;;;;;;;;;22.70;37.90;;;;;;5061296;28;19928;-68
2024/02/26 06:57:20;;;;;;;;;;;22.80;37.70;;;;;;5068790;28;19924;-67
2024/02/26 06:59:48;;;;;;;;;;;22.90;37.60;;;;;;5071750;28;19925;-68
2024/02/26 07:02:16;;;;;;;;;;;23.00;37.50;;;;;;5078868;28;19932;-68
2024/02/26 07:04:43;;;;;;;;;;;23.10;37.50;;;;;;5056628;28;19933;-67
2024/02/26 07:07:10;;;;;;;;;;;23.10;37.30;;;;;;5066643;28;19967;-67
2024/02/26 07:09:37;;;;;;;;;;;23.20;37.20;;;;;;5059925;28;20019;-67
2024/02/26 07:12:05;;;;;;;;;;;23.30;37.20;;;;;;5065137;28;19943;-64
2024/02/26 07:14:32;;;;;;;;;;;23.40;37.10;;;;;;5061784;28;19979;-67
2024/02/26 07:16:59;;;;;;;;;;;23.40;37.10;;;;;;5059438;28;19928;-67
2024/02/26 07:19:26;;;;;;;;;;;23.50;37.10;;;;;;5059008;28;20340;-65
2024/02/26 07:21:53;;;;;;;;;;;23.60;37.00;;;;;;5061105;28;19940;-62
2024/02/26 07:24:20;;;;;;;;;;;23.70;36.90;;;;;;5060497;28;20019;-61
2024/02/26 07:26:47;;;;;;;;;;;23.70;37.30;;;;;;5060437;28;20055;-63
2024/02/26 07:29:14;;;;;;;;;;;23.80;37.60;;;;;;5063286;28;20014;-64
2024/02/26 07:31:42;;;;;;;;;;;23.90;37.50;;;;;;5060429;28;20374;-63
2024/02/26 07:34:09;;;;;;;;;;;23.90;37.40;;;;;;5065519;28;19997;-63
2024/02/26 07:36:36;;;;;;;;;;;24.10;37.50;;;;;;5071146;28;19986;-63
2024/02/26 07:39:03;;;;;;;;;;;24.10;38.00;;;;;;5066685;28;20297;-65
2024/02/26 07:41:30;;;;;;;;;;;24.20;37.30;;;;;;5062687;28;19931;-64
2024/02/26 07:43:57;;;;;;;;;;;24.30;37.00;;;;;;5069723;28;19977;-65
2024/02/26 07:46:24;;;;;;;;;;;24.30;37.20;;;;;;5065347;28;20512;-64
2024/02/26 07:48:51;;;;;;;;;;;24.40;36.50;;;;;;5063351;28;19932;-66
2024/02/26 07:51:19;;;;;;;;;;;24.40;36.40;;;;;;5059792;28;20352;-67
2024/02/26 07:53:46;;;;;;;;;;;24.50;36.60;;;;;;5061140;28;19989;-63
2024/02/26 07:56:13;;;;;;;;;;;24.50;36.80;;;;;;5072411;28;20396;-68
2024/02/26 07:58:40;;;;;;;;;;;24.60;36.70;;;;;;5069408;28;19960;-64
2024/02/26 08:01:07;;;;;;;;;;;24.60;36.90;;;;;;5062013;28;19932;-62
2024/02/26 08:03:34;;;;;;;;;;;24.70;36.80;;;;;;5064876;28;19932;-62
2024/02/26 08:06:01;;;;;;;;;;;24.70;36.80;;;;;;5061588;28;19932;-61
2024/02/26 08:08:29;;;;;;;;;;;24.80;36.30;;;;;;5061632;28;20400;-61
2024/02/26 08:10:55;;;;;;;;;;;24.80;36.20;;;;;;5063762;28;19928;-62
2024/02/26 08:13:22;;;;;;;;;;;24.80;36.00;;;;;;5058457;28;19974;-61
2024/02/26 08:15:50;;;;;;;;;;;24.90;36.00;;;;;;5064215;28;19924;-63
2024/02/26 08:18:17;;;;;;;;;;;24.90;36.00;;;;;;5066223;28;19956;-62
2024/02/26 08:20:48;;;;;;;;;;;24.90;35.90;;;;;;5064834;28;20358;-65
2024/02/26 08:23:15;;;;;;;;;;;24.90;35.90;;;;;;5062496;28;19925;-65
2024/02/26 08:25:42;;;;;;;;;;;25.00;36.00;;;;;;5062314;28;19931;-62
2024/02/26 08:28:13;;;;;;;;;;;25.00;36.00;;;;;;5061116;28;19931;-62
2024/02/26 08:30:40;;;;;;;;;;;25.10;36.00;;;;;;5061287;28;19979;-64
2024/02/26 08:33:07;;;;;;;;;;;25.10;36.10;;;;;;5069159;28;20416;-67
2024/02/26 08:35:34;;;;;;;;;;;25.10;36.00;;;;;;5060258;28;20244;-67
2024/02/26 08:38:01;;;;;;;;;;;25.10;36.00;;;;;;5060585;28;19989;-66
2024/02/26 08:40:28;;;;;;;;;;;25.10;36.00;;;;;;5063284;28;19964;-67
2024/02/26 08:42:55;;;;;;;;;;;25.10;36.00;;;;;;5059480;28;19989;-68
2024/02/26 08:45:22;;;;;;;;;;;25.20;36.00;;;;;;5061832;28;19932;-71
2024/02/26 08:47:52;;;;;;;;;;;25.20;36.00;;;;;;5058446;28;19948;-71
2024/02/26 08:50:19;;;;;;;;;;;25.20;36.00;;;;;;5061773;28;20439;-70
2024/02/26 08:52:50;;;;;;;;;;;25.20;35.90;;;;;;5060124;28;19933;-69
2024/02/26 08:55:17;;;;;;;;;;;25.20;35.90;;;;;;5054753;28;19936;-65
2024/02/26 08:57:44;;;;;;;;;;;25.20;35.90;;;;;;5060195;28;20393;-66
2024/02/26 09:00:12;;;;;;;;;;;25.30;35.90;;;;;;5066080;28;19928;-68
2024/02/26 09:02:39;;;;;;;;;;;25.30;36.00;;;;;;5066128;28;19932;-63
2024/02/26 09:05:06;;;;;;;;;;;25.30;35.90;;;;;;5060957;28;19924;-63
2024/02/26 09:07:33;;;;;;;;;;;25.30;35.90;;;;;;5064812;28;19925;-61
2024/02/26 09:10:00;;;;;;;;;;;25.40;35.90;;;;;;5065910;28;19925;-63
2024/02/26 09:12:27;;;;;;;;;;;25.40;35.80;;;;;;5063769;28;19933;-61
2024/02/26 09:14:56;;;;;;;;;;;25.40;35.90;;;;;;5061004;28;19944;-63
2024/02/26 09:17:23;;;;;;;;;;;25.40;35.80;;;;;;5063459;28;20412;-62
2024/02/26 09:19:50;;;;;;;;;;;25.40;35.80;;;;;;5065219;28;20043;-61
2024/02/26 09:22:17;;;;;;;;;;;25.40;35.80;;;;;;5065734;28;20542;-67
2024/02/26 09:24:45;;;;;;;;;;;25.50;35.80;;;;;;5066366;28;19928;-66
2024/02/26 09:27:11;;;;;;;;;;;25.50;35.70;;;;;;5063406;28;19935;-63
2024/02/26 09:29:38;;;;;;;;;;;25.50;35.70;;;;;;5067187;28;20457;-62
2024/02/26 09:32:05;;;;;;;;;;;25.60;35.80;;;;;;5062427;28;19940;-62
2024/02/26 09:34:33;;;;;;;;;;;25.60;35.70;;;;;;5064636;28;19928;-62
2024/02/26 09:37:01;;;;;;;;;;;25.60;35.60;;;;;;5057793;28;19925;-64
2024/02/26 09:39:41;;;;;;;;;;;25.60;35.50;;;;;;5059398;28;19982;-66
2024/02/26 09:42:11;;;;;;;;;;;25.70;35.60;;;;;;5064052;28;20008;-65
2024/02/26 09:44:41;;;;;;;;;;;25.70;35.70;;;;;;5066516;28;20389;-63
2024/02/26 09:47:09;;;;;;;;;;;25.70;35.60;;;;;;5096804;28;19939;-63
2024/02/26 09:49:36;;;;;;;;;;;25.70;35.60;;;;;;5070843;28;20296;-62
2024/02/26 09:52:04;;;;;;;;;;;25.70;35.60;;;;;;5065075;28;19983;-60
2024/02/26 09:54:32;;;;;;;;;;;25.80;35.60;;;;;;5058363;28;19928;-60
2024/02/26 09:57:00;;;;;;;;;;;25.80;35.60;;;;;;5065926;28;19925;-61
2024/02/26 09:59:36;;;;;;;;;;;25.80;35.40;;;;;;5068384;28;19960;-60
2024/02/26 10:02:10;;;;;;;;;;;25.80;35.30;;;;;;5063154;28;19932;-60
2024/02/26 10:04:39;;;;;;;;;;;25.80;35.10;;;;;;5063127;28;19935;-60
2024/02/26 10:07:09;;;;;;;;;;;25.90;35.10;;;;;;5065714;28;19929;-60
2024/02/26 10:09:37;;;;;;;;;;;25.90;35.00;;;;;;5066978;28;19936;-60
2024/02/26 10:12:04;;;;;;;;;;;25.90;35.00;;;;;;5066803;28;19934;-60
2024/02/26 10:14:31;;;;;;;;;;;25.90;34.90;;;;;;5067212;28;19932;-60
2024/02/26 10:17:01;;;;;;;;;;;25.90;34.70;;;;;;5072427;28;19935;-60
2024/02/26 10:19:29;;;;;;;;;;;25.90;34.70;;;;;;5065790;28;20015;-60
2024/02/26 10:21:57;;;;;;;;;;;25.90;34.60;;;;;;5068134;28;19932;-59
2024/02/26 10:24:25;;;;;;;;;;;25.90;34.60;;;;;;5065347;28;19939;-60
2024/02/26 10:26:53;;;;;;;;;;;25.90;34.70;;;;;;5060724;28;20241;-60
2024/02/26 10:29:20;;;;;;;;;;;26.00;34.50;;;;;;5068073;28;20369;-60
2024/02/26 10:31:47;;;;;;;;;;;26.00;34.40;;;;;;5068749;28;19929;-63
2024/02/26 10:34:15;;;;;;;;;;;26.00;34.40;;;;;;5062794;28;19929;-65
2024/02/26 10:36:42;;;;;;;;;;;26.10;34.40;;;;;;5063437;28;19935;-65
2024/02/26 10:39:19;;;;;;;;;;;26.10;34.20;;;;;;5064287;28;19928;-65
2024/02/26 10:41:46;;;;;;;;;;;26.10;34.10;;;;;;5067304;28;20015;-63
2024/02/26 10:44:13;;;;;;;;;;;26.10;34.10;;;;;;5070801;28;19928;-63
2024/02/26 10:46:46;;;;;;;;;;;26.10;33.90;;;;;;5064359;28;19986;-63
2024/02/26 10:49:17;;;;;;;;;;;26.10;33.90;;;;;;5062908;28;19933;-63
2024/02/26 10:51:49;;;;;;;;;;;26.10;33.90;;;;;;5064818;28;20420;-62
2024/02/26 10:54:16;;;;;;;;;;;26.20;34.00;;;;;;5064870;28;19928;-61
2024/02/26 10:56:45;;;;;;;;;;;26.20;34.00;;;;;;5065274;28;19932;-62
2024/02/26 10:59:12;;;;;;;;;;;26.20;33.90;;;;;;5063178;28;20445;-65
2024/02/26 11:01:41;;;;;;;;;;;26.20;33.80;;;;;;5073393;28;19935;-63
2024/02/26 11:04:09;;;;;;;;;;;26.30;33.80;;;;;;5072702;28;20381;-63
2024/02/26 11:06:36;;;;;;;;;;;26.30;33.60;;;;;;5066777;28;19971;-65
2024/02/26 11:09:04;;;;;;;;;;;26.30;33.70;;;;;;5067487;28;20368;-66
2024/02/26 11:11:34;;;;;;;;;;;26.30;33.70;;;;;;5070804;28;19925;-66
2024/02/26 11:14:02;;;;;;;;;;;26.40;33.70;;;;;;5067282;28;19978;-66
2024/02/26 11:16:30;;;;;;;;;;;26.40;33.70;;;;;;5070297;28;19978;-67
2024/02/26 11:18:57;;;;;;;;;;;26.40;33.80;;;;;;5072196;28;20381;-63
2024/02/26 11:21:38;;;;;;;;;;;26.40;33.60;;;;;;5073462;28;19928;-63
2024/02/26 11:24:07;;;;;;;;;;;26.50;33.50;;;;;;5066098;28;19943;-63
2024/02/26 11:26:36;;;;;;;;;;;26.50;33.50;;;;;;5066716;28;19948;-63
2024/02/26 11:29:04;;;;;;;;;;;26.60;33.30;;;;;;5067910;28;19925;-63
2024/02/26 11:31:32;;;;;;;;;;;26.60;33.10;;;;;;5065567;28;19924;-63
2024/02/26 11:34:02;;;;;;;;;;;26.60;32.90;;;;;;5079722;28;20318;-65
2024/02/26 11:36:30;;;;;;;;;;;26.70;32.90;;;;;;5062338;28;20015;-63
2024/02/26 11:38:57;;;;;;;;;;;26.70;32.90;;;;;;5068755;28;20438;-65
2024/02/26 11:41:24;;;;;;;;;;;26.80;32.90;;;;;;5068023;28;19928;-64
2024/02/26 11:43:52;;;;;;;;;;;26.70;32.80;;;;;;5066124;28;20523;-62
2024/02/26 11:46:26;;;;;;;;;;;26.80;32.70;;;;;;5065025;28;20024;-61
2024/02/26 11:48:55;;;;;;;;;;;26.80;32.60;;;;;;5061570;28;20354;-67
2024/02/26 11:51:27;;;;;;;;;;;26.80;32.50;;;;;;5068912;28;19924;-67
2024/02/26 11:53:57;;;;;;;;;;;26.80;32.60;;;;;;5064261;28;19933;-69
2024/02/26 11:56:26;;;;;;;;;;;26.80;32.60;;;;;;5060961;28;19932;-67
2024/02/26 11:59:11;;;;;;;;;;;26.80;32.50;;;;;;5059051;28;19960;-71
2024/02/26 12:01:39;;;;;;;;;;;26.80;32.50;;;;;;5064351;28;20313;-64
2024/02/26 12:04:07;;;;;;;;;;;26.80;32.50;;;;;;5065059;28;20408;-64
2024/02/26 12:06:41;;;;;;;;;;;26.80;32.50;;;;;;5067956;28;19928;-64
2024/02/26 12:09:08;;;;;;;;;;;26.70;32.50;;;;;;5067727;28;19971;-66
2024/02/26 12:11:39;;;;;;;;;;;26.70;32.50;;;;;;5066458;28;19932;-66
2024/02/26 12:14:09;;;;;;;;;;;26.70;32.60;;;;;;5067101;28;20019;-63
2024/02/26 12:16:40;;;;;;;;;;;26.70;32.60;;;;;;5066534;28;20413;-63
2024/02/26 12:19:08;;;;;;;;;;;26.70;32.60;;;;;;5062859;28;20393;-63
2024/02/26 12:21:36;;;;;;;;;;;26.70;32.60;;;;;;5061167;28;19936;-70
2024/02/26 12:24:14;;;;;;;;;;;26.60;32.60;;;;;;5065615;28;20508;-64
2024/02/26 12:26:41;;;;;;;;;;;26.60;32.70;;;;;;5064185;28;19932;-65
2024/02/26 12:29:09;;;;;;;;;;;26.60;32.70;;;;;;5064430;28;19932;-66
2024/02/26 12:31:36;;;;;;;;;;;26.60;32.80;;;;;;5065420;28;19925;-65
2024/02/26 12:34:04;;;;;;;;;;;26.60;32.80;;;;;;5061626;28;19925;-66
2024/02/26 12:36:32;;;;;;;;;;;26.60;32.80;;;;;;5063277;28;19932;-67
2024/02/26 12:39:00;;;;;;;;;;;26.60;32.80;;;;;;5063216;28;19940;-67
2024/02/26 12:41:28;;;;;;;;;;;26.50;32.90;;;;;;5062304;28;19935;-65
2024/02/26 12:43:56;;;;;;;;;;;26.50;32.90;;;;;;5063719;28;20518;-63
2024/02/26 12:46:23;;;;;;;;;;;26.50;33.00;;;;;;5063297;28;19924;-67
2024/02/26 12:48:50;;;;;;;;;;;26.50;33.00;;;;;;5062017;28;19928;-69
2024/02/26 12:51:17;;;;;;;;;;;26.50;33.20;;;;;;5068357;28;20370;-67
2024/02/26 12:53:45;;;;;;;;;;;26.50;33.20;;;;;;5066400;28;19936;-67
2024/02/26 12:56:12;;;;;;;;;;;26.50;33.20;;;;;;5062032;28;19928;-66
2024/02/26 12:58:40;;;;;;;;;;;26.50;33.00;;;;;;5061997;28;19940;-66
2024/02/26 13:01:07;;;;;;;;;;;26.50;32.90;;;;;;5065374;28;20322;-66
2024/02/26 13:03:35;;;;;;;;;;;26.50;32.80;;;;;;5062915;28;19978;-66
2024/02/26 13:06:03;;;;;;;;;;;26.50;32.80;;;;;;5067409;28;19933;-68
2024/02/26 13:08:31;;;;;;;;;;;26.50;32.80;;;;;;5063570;28;19932;-71
2024/02/26 13:10:59;;;;;;;;;;;26.50;32.80;;;;;;5069179;28;19924;-67
2024/02/26 13:13:26;;;;;;;;;;;26.40;32.80;;;;;;5059748;28;19924;-65
2024/02/26 13:16:01;;;;;;;;;;;26.40;32.80;;;;;;5067968;28;19924;-65
2024/02/26 13:18:31;;;;;;;;;;;26.40;32.90;;;;;;5063597;28;20027;-65
2024/02/26 13:21:12;;;;;;;;;;;26.40;33.00;;;;;;5065447;28;19931;-67
2024/02/26 13:23:39;;;;;;;;;;;26.40;32.80;;;;;;5060519;28;19936;-65
2024/02/26 13:26:07;;;;;;;;;;;26.40;32.90;;;;;;5065833;28;19940;-70
2024/02/26 13:28:34;;;;;;;;;;;26.30;32.80;;;;;;5068320;28;20160;-69
2024/02/26 13:31:03;;;;;;;;;;;26.30;32.90;;;;;;5068907;28;20023;-69
2024/02/26 13:33:30;;;;;;;;;;;26.30;32.90;;;;;;5068203;28;20436;-70
2024/02/26 13:35:58;;;;;;;;;;;26.30;32.90;;;;;;5067286;28;20385;-69
2024/02/26 13:38:25;;;;;;;;;;;26.30;33.00;;;;;;5064985;28;20413;-70
2024/02/26 13:40:52;;;;;;;;;;;26.40;33.00;;;;;;5067477;28;19925;-68
2024/02/26 13:43:19;;;;;;;;;;;26.30;32.90;;;;;;5059606;28;20409;-69
2024/02/26 13:45:46;;;;;;;;;;;26.30;32.90;;;;;;5071118;28;19933;-70
2024/02/26 13:48:14;;;;;;;;;;;26.30;32.90;;;;;;5068480;28;19973;-73
2024/02/26 13:50:45;;;;;;;;;;;26.30;32.90;;;;;;5068410;28;19932;-71
2024/02/26 13:53:13;;;;;;;;;;;26.40;32.90;;;;;;5065559;28;20387;-71
2024/02/26 13:55:43;;;;;;;;;;;26.30;32.90;;;;;;5063955;28;19943;-68
2024/02/26 13:58:14;;;;;;;;;;;26.30;33.00;;;;;;5063346;28;19958;-70
2024/02/26 14:00:41;;;;;;;;;;;26.30;33.00;;;;;;5066246;28;19929;-67
2024/02/26 14:03:10;;;;;;;;;;;26.30;33.00;;;;;;5064395;28;19936;-68
2024/02/26 14:05:37;;;;;;;;;;;26.30;33.10;;;;;;5065221;28;19936;-66
2024/02/26 14:08:04;;;;;;;;;;;26.30;33.10;;;;;;5063143;28;19935;-69
2024/02/26 14:10:32;;;;;;;;;;;26.30;33.20;;;;;;5071358;28;19924;-70
2024/02/26 14:12:59;;;;;;;;;;;26.30;33.20;;;;;;5067846;28;19982;-71
2024/02/26 14:15:28;;;;;;;;;;;26.20;33.80;;;;;;5067675;28;19933;-66
2024/02/26 14:17:56;;;;;;;;;;;26.20;33.30;;;;;;5065191;28;19928;-68
2024/02/26 14:20:24;;;;;;;;;;;26.20;33.30;;;;;;5065004;28;19924;-68